ROMMA est une association bénévole à but non lucratif. Votre soutien est indispensable : ADHERER à ROMMA ou FAIRE un DON

Granges-lès-Beaumont - (26, Drôme)

Drôme des Collines (155 m)   Longitude: 04°58'E   Latitude: 45°03'N Station partenaire n°123
 

Détail journalier du     <<     >>

Température Precipitation Humidité Pression Vent Dir Rafale Dir. rafale Ensol.
Heure (°C) (mm) (%) (hPa) (km/h) (km/h) (min)
01:00 3.108710332NE6NO0
02:00 2.308710331NE6NE0
03:00 1.808710332NNO8NE0
04:00 0.8088103305SSE0
05:00 0.908910341SSE6SSE0
06:00 0.408910341NNO6NNO0
07:00 0.808910341---6NNO0
08:00 0.008910341---6NNO0
09:00 2.8089103400---20
10:00 5.708510343ENE6ENE40
11:00 8.607410342ENE6ENE0
12:00 11.606610343S8SSO50
13:00 13.805810333E11E60
14:00 15.205410323S11S60
15:00 16.504910313E13E60
16:00 17.404810313SO8SO60
17:00 16.404910302S10SE60
18:00 15.205710313OSO6SO50
19:00 10.906910312ONO6NO0
20:00 9.9072103110NNO15NNO0
21:00 9.107410328NNO16NNO0
22:00 7.607710328NNO16NNO0
23:00 6.807910327N15N0
minuit 5.008110324NE11NNO0

Graphique du 25-02-2019

 

Serveur OMMA